Hauptseite
METAR-TAF:

METAR-TAF

Flughäfen :

Stuttgart, Deutschland

Flughafen Stuttgart

Breite: 48-41N, Länge: 009-13E, Höhe: 396 m

Beobachtung

Neuester Wetterbericht von vor 23 Minuten, um 16:20 UTC
Wind 8 kt aus Südwest, variierte zwischen Süd und West
Temperatur 12°C
Luftfeuchtigkeit 38%
Luftdruck 1014 hPa
Sichtweite 10 km oder mehr
keine Wolken unter 1500 m und keine Kumulonimbus oder Gewitterwolken

METAR: EDDS 261620Z 23008KT 180V260 CAVOK 12/M02 Q1014 NOSIG

Zeit: 17:43 (16:43 UTC)

Prognose

Neuester Wetterbericht von vor 5 Stunden und 43 Minuten, um 11:00 UTC
Gültige Prognose vom 26 um 12 UTC bis 27 um 12 UTC
Wind 6 kt aus Südwest
Sichtweite 10 km oder mehr
keine Wolken unter 1500 m und keine Kumulonimbus oder Gewitterwolken
Übergehend zu
vom 26 um 16 UTC bis 26 um 19 UTC
Wind 3 kt aus unterschiedlichen Richtungen

TAF: EDDS 261100Z 2612/2712 23006KT CAVOK BECMG 2616/2619 VRB03KT

Wetterbeobachtungen und Prognosen von mehr als 4000 Flughäfen (METAR und TAF Bericht).

Die verfügbaren Stationen werden durch gelbe und rote Markierungen auf der Karte dargestellt.

Führen Sie die Maus auf sie, um den Namen der Station zu sehen.

Darauf klicken, um die Beobachtung von Wetterbeobachtungen und Prognosen zu sehen.

Um die Karte zu ändern : klicken Sie auf den grünen Tasten mit einem schwarzen Kreuz Zum Vergrößern, auf den grünen Button mit einem Gedankenstrich zu verkleinern, oder auf die grünen Pfeile für benachbarte Karten.


METAR-TAF: